Time;durP1;ratioP1;P1;durP2;ratioP2;P2;SDS_P1;SDS_P2;PMS_P1;PMS_P2;Temp;Humidity;BMP_temperature;BMP_pressure;BME280_temperature;BME280_humidity;BME280_pressure;Samples;Min_cycle;Max_cycle;Signal;HPM_P1;HPM_P2
2021/01/10 00:00:15;;;;;;;10.80;5.95;;;12.70;99.90;;;;;;5009370;28;20108;-45
2021/01/10 00:02:44;;;;;;;10.27;6.60;;;12.50;99.90;;;;;;5012246;28;20061;-45
2021/01/10 00:05:16;;;;;;;9.50;6.63;;;12.50;99.90;;;;;;4996098;28;20049;-46
2021/01/10 00:07:44;;;;;;;10.00;5.43;;;12.50;99.90;;;;;;5012706;28;20048;-46
2021/01/10 00:10:12;;;;;;;9.05;5.72;;;12.50;99.90;;;;;;5028707;28;20045;-46
2021/01/10 00:12:39;;;;;;;8.52;5.35;;;12.50;99.90;;;;;;5015447;28;20045;-48
2021/01/10 00:15:12;;;;;;;9.48;5.65;;;12.50;99.90;;;;;;5031696;28;20053;-47
2021/01/10 00:17:41;;;;;;;9.50;5.20;;;12.50;99.90;;;;;;5012492;28;20046;-48
2021/01/10 00:20:10;;;;;;;8.90;6.43;;;12.50;99.90;;;;;;5028518;28;20128;-48
2021/01/10 00:22:37;;;;;;;10.95;6.60;;;12.60;99.90;;;;;;5033158;28;20071;-51
2021/01/10 00:25:07;;;;;;;8.82;5.88;;;12.60;99.90;;;;;;5031405;28;20049;-48
2021/01/10 00:27:35;;;;;;;8.32;5.07;;;12.60;99.90;;;;;;5033280;28;20083;-50
2021/01/10 00:30:06;;;;;;;8.93;6.53;;;12.60;99.90;;;;;;5031241;28;20045;-51
2021/01/10 00:32:33;;;;;;;9.20;5.57;;;12.60;99.90;;;;;;5031658;28;20049;-46
2021/01/10 00:35:01;;;;;;;9.48;5.60;;;12.70;99.90;;;;;;5032668;28;20050;-47
2021/01/10 00:37:29;;;;;;;11.10;5.95;;;12.60;99.90;;;;;;5032060;28;20057;-47
2021/01/10 00:39:57;;;;;;;10.18;6.85;;;12.40;99.90;;;;;;5031227;28;20122;-48
2021/01/10 00:42:24;;;;;;;12.18;6.63;;;12.40;99.90;;;;;;5032658;28;20053;-51
2021/01/10 00:44:51;;;;;;;15.15;11.88;;;12.40;99.90;;;;;;5018932;28;20491;-45
2021/01/10 00:47:22;;;;;;;13.25;8.98;;;12.40;99.90;;;;;;5035775;28;20087;-46
2021/01/10 00:49:50;;;;;;;8.70;6.63;;;12.40;99.90;;;;;;5035442;28;20052;-50
2021/01/10 00:52:19;;;;;;;9.98;6.88;;;12.40;99.90;;;;;;5035379;28;20046;-46
2021/01/10 00:54:48;;;;;;;8.95;5.80;;;12.40;99.90;;;;;;5035133;28;20557;-47
2021/01/10 00:57:18;;;;;;;8.80;5.55;;;12.40;99.90;;;;;;5035197;28;20062;-47
2021/01/10 00:59:45;;;;;;;9.20;5.68;;;12.40;99.90;;;;;;5018067;28;20061;-46
2021/01/10 01:02:14;;;;;;;6.25;4.72;;;12.40;99.90;;;;;;5032012;28;20136;-47
2021/01/10 01:04:47;;;;;;;6.55;4.07;;;12.40;99.90;;;;;;5034696;28;20521;-46
2021/01/10 01:07:16;;;;;;;7.30;4.10;;;12.40;99.90;;;;;;5018264;28;20067;-46
2021/01/10 01:09:47;;;;;;;7.15;4.30;;;12.50;99.90;;;;;;5019137;28;20502;-46
2021/01/10 01:12:22;;;;;;;9.13;5.07;;;12.50;99.90;;;;;;5035377;28;20048;-45
2021/01/10 01:14:50;;;;;;;8.98;5.18;;;12.50;99.90;;;;;;5035891;28;20053;-45
2021/01/10 01:17:18;;;;;;;9.38;5.40;;;12.50;99.90;;;;;;5035287;28;20537;-45
2021/01/10 01:19:46;;;;;;;7.38;4.57;;;12.50;99.90;;;;;;5018328;28;20049;-46
2021/01/10 01:22:13;;;;;;;9.65;5.43;;;12.50;99.90;;;;;;5036264;28;20057;-47
2021/01/10 01:24:41;;;;;;;10.07;5.43;;;12.50;99.90;;;;;;5017959;28;20041;-46
2021/01/10 01:27:08;;;;;;;7.20;5.50;;;12.50;99.90;;;;;;5018923;28;20488;-46
2021/01/10 01:29:35;;;;;;;8.85;5.55;;;12.50;99.90;;;;;;5034563;28;20056;-45
2021/01/10 01:32:03;;;;;;;9.02;5.20;;;12.50;99.90;;;;;;5034777;28;20053;-45
2021/01/10 01:34:30;;;;;;;7.60;5.05;;;12.50;99.90;;;;;;5034076;28;20507;-52
2021/01/10 01:36:57;;;;;;;8.75;4.75;;;12.50;99.90;;;;;;5035983;28;20065;-50
2021/01/10 01:39:25;;;;;;;9.23;6.13;;;12.50;99.90;;;;;;5017751;28;20053;-51
2021/01/10 01:41:52;;;;;;;10.95;6.45;;;12.50;99.90;;;;;;5035964;28;20104;-47
2021/01/10 01:44:20;;;;;;;9.07;5.72;;;12.40;99.90;;;;;;5001412;28;20498;-48
2021/01/10 01:46:47;;;;;;;9.20;5.95;;;12.40;99.90;;;;;;5001771;28;20050;-50
2021/01/10 01:49:14;;;;;;;8.05;4.93;;;12.30;99.90;;;;;;5017871;28;20121;-46
2021/01/10 01:51:42;;;;;;;7.35;5.13;;;12.30;99.90;;;;;;5035859;28;20103;-46
2021/01/10 01:54:09;;;;;;;8.38;5.47;;;12.20;99.90;;;;;;5000135;28;20053;-46
2021/01/10 01:56:55;;;;;;;8.25;4.70;;;12.20;99.90;;;;;;5015318;28;20053;-47
2021/01/10 01:59:41;;;;;;;7.47;4.55;;;12.30;99.90;;;;;;5035709;28;20056;-47
2021/01/10 02:02:27;;;;;;;10.25;5.35;;;12.30;99.90;;;;;;5035509;28;20096;-48
2021/01/10 02:05:15;;;;;;;;;;;12.30;99.90;;;;;;5020742;28;20127;-47
2021/01/10 02:08:08;;;;;;;6.60;5.07;;;12.30;99.90;;;;;;5001345;28;19944;-46
2021/01/10 02:11:02;;;;;;;8.90;5.35;;;12.40;99.90;;;;;;5019204;28;20052;-46
2021/01/10 02:13:48;;;;;;;8.82;4.97;;;12.40;99.90;;;;;;5006597;28;20060;-49
2021/01/10 02:16:37;;;;;;;9.45;5.72;;;12.40;99.90;;;;;;5020112;28;20415;-47
2021/01/10 02:19:33;;;;;;;8.07;6.03;;;12.40;99.90;;;;;;5035065;28;20068;-49
2021/01/10 02:22:24;;;;;;;10.30;5.57;;;12.50;99.90;;;;;;5035456;28;20060;-46
2021/01/10 02:25:12;;;;;;;8.18;4.78;;;12.50;99.90;;;;;;5034038;28;20087;-49
2021/01/10 02:27:59;;;;;;;11.15;7.00;;;12.50;99.90;;;;;;5001035;28;20057;-45
2021/01/10 02:30:45;;;;;;;8.82;5.28;;;12.50;99.90;;;;;;5019954;28;20069;-50
2021/01/10 02:33:54;;;;;;;8.57;4.65;;;12.50;99.90;;;;;;5019593;28;20056;-45
2021/01/10 02:37:01;;;;;;;7.13;4.65;;;12.50;99.90;;;;;;5012072;28;20191;-46
2021/01/10 02:40:12;;;;;;;8.18;5.00;;;12.50;99.90;;;;;;5033875;28;20095;-45
2021/01/10 02:43:03;;;;;;;8.32;4.53;;;12.50;99.90;;;;;;4989841;28;20057;-46
2021/01/10 02:45:58;;;;;;;6.20;4.15;;;12.50;99.90;;;;;;5031843;28;20103;-45
2021/01/10 02:48:44;;;;;;;7.95;4.13;;;12.40;99.90;;;;;;5033652;28;20098;-46
2021/01/10 02:51:30;;;;;;;6.70;3.83;;;12.30;99.90;;;;;;5034167;28;20088;-46
2021/01/10 02:54:18;;;;;;;7.50;4.68;;;12.30;99.90;;;;;;5034179;28;20057;-45
2021/01/10 02:57:15;;;;;;;8.60;5.35;;;12.20;99.90;;;;;;5034872;28;20056;-51
2021/01/10 03:00:06;;;;;;;6.33;3.70;;;12.10;99.90;;;;;;5034465;28;20064;-50
2021/01/10 03:02:54;;;;;;;5.22;3.00;;;12.00;99.90;;;;;;5014006;28;20049;-49
2021/01/10 03:05:40;;;;;;;6.80;4.38;;;11.80;99.90;;;;;;5032043;28;20052;-48
2021/01/10 03:08:27;;;;;;;9.40;5.03;;;11.70;99.90;;;;;;5032360;28;20048;-49
2021/01/10 03:11:13;;;;;;;8.45;4.68;;;11.70;99.90;;;;;;5030368;28;20143;-51
2021/01/10 03:13:58;;;;;;;6.70;4.13;;;11.80;99.90;;;;;;5032860;28;20068;-47
2021/01/10 03:16:44;;;;;;;7.28;4.40;;;11.80;99.90;;;;;;5026804;28;20048;-48
2021/01/10 03:19:11;;;;;;;6.03;4.20;;;11.90;99.90;;;;;;5033496;28;20054;-46
2021/01/10 03:21:38;;;;;;;7.85;4.50;;;12.00;99.90;;;;;;5032874;28;20077;-46
2021/01/10 03:24:06;;;;;;;6.53;4.38;;;12.00;99.90;;;;;;5033808;28;20048;-48
2021/01/10 03:26:33;;;;;;;7.03;4.53;;;11.90;99.90;;;;;;5032623;28;20099;-50
2021/01/10 03:29:01;;;;;;;7.55;3.85;;;12.00;99.90;;;;;;5032140;28;20053;-49
2021/01/10 03:31:29;;;;;;;6.68;4.70;;;12.00;99.90;;;;;;5032546;28;20049;-48
2021/01/10 03:33:56;;;;;;;6.30;4.57;;;12.00;99.90;;;;;;5032281;28;20132;-47
2021/01/10 03:36:23;;;;;;;10.15;6.15;;;12.10;99.90;;;;;;5032285;28;20147;-47
2021/01/10 03:38:50;;;;;;;8.88;5.90;;;12.10;99.90;;;;;;5032359;28;20080;-45
2021/01/10 03:41:18;;;;;;;11.30;5.75;;;12.10;99.90;;;;;;5033675;28;20136;-46
2021/01/10 03:43:45;;;;;;;6.47;4.30;;;12.10;99.90;;;;;;5031750;28;20499;-45
2021/01/10 03:46:12;;;;;;;7.68;4.70;;;12.10;99.90;;;;;;5016268;28;20045;-45
2021/01/10 03:48:39;;;;;;;8.48;5.22;;;12.10;99.90;;;;;;5033042;28;20046;-46
2021/01/10 03:51:06;;;;;;;8.25;4.57;;;12.20;99.90;;;;;;5032347;28;20054;-45
2021/01/10 03:53:34;;;;;;;6.97;4.32;;;12.30;99.90;;;;;;5032867;28;20053;-45
2021/01/10 03:56:01;;;;;;;6.80;4.43;;;12.30;99.90;;;;;;5032406;28;20045;-47
2021/01/10 03:58:29;;;;;;;5.82;4.25;;;12.40;99.90;;;;;;5032838;28;20144;-47
2021/01/10 04:00:56;;;;;;;9.98;4.25;;;12.40;99.90;;;;;;5032053;28;20557;-45
2021/01/10 04:03:23;;;;;;;5.60;3.67;;;12.50;99.90;;;;;;5031685;28;20384;-46
2021/01/10 04:05:51;;;;;;;6.20;3.88;;;12.50;99.90;;;;;;5033188;28;20045;-45
2021/01/10 04:08:18;;;;;;;6.40;3.90;;;12.40;99.90;;;;;;5031748;28;20060;-59
2021/01/10 04:10:45;;;;;;;6.95;5.05;;;12.30;99.90;;;;;;5015686;28;20403;-46
2021/01/10 04:13:13;;;;;;;7.15;4.72;;;12.40;99.90;;;;;;5031560;28;20052;-46
2021/01/10 04:15:40;;;;;;;7.40;5.00;;;12.40;99.90;;;;;;5030833;28;20046;-46
2021/01/10 04:18:07;;;;;;;7.47;4.45;;;12.50;99.90;;;;;;5031732;28;20042;-53
2021/01/10 04:20:34;;;;;;;5.60;3.58;;;12.50;99.90;;;;;;5031570;28;20119;-48
2021/01/10 04:23:02;;;;;;;6.65;4.18;;;12.50;99.90;;;;;;5032239;28;20053;-47
2021/01/10 04:25:29;;;;;;;5.68;4.03;;;12.50;99.90;;;;;;5015391;28;20147;-47
2021/01/10 04:27:57;;;;;;;6.32;3.88;;;12.50;99.90;;;;;;5032194;28;20057;-48
2021/01/10 04:30:24;;;;;;;7.65;5.30;;;12.60;99.90;;;;;;5030887;28;20042;-47
2021/01/10 04:32:52;;;;;;;6.03;3.72;;;12.60;99.90;;;;;;5031777;28;20488;-49
2021/01/10 04:35:19;;;;;;;7.65;4.10;;;12.60;99.90;;;;;;5031234;28;20419;-50
2021/01/10 04:37:46;;;;;;;5.22;3.35;;;12.50;99.90;;;;;;5032315;28;20480;-46
2021/01/10 04:40:15;;;;;;;8.23;3.80;;;12.60;99.90;;;;;;5031473;28;20127;-50
2021/01/10 04:42:44;;;;;;;8.20;4.45;;;12.60;99.90;;;;;;5028209;28;20122;-50
2021/01/10 04:45:11;;;;;;;7.43;4.63;;;12.40;99.90;;;;;;5028333;28;20053;-46
2021/01/10 04:47:41;;;;;;;6.57;4.60;;;12.40;99.90;;;;;;5031784;28;20488;-46
2021/01/10 04:50:09;;;;;;;7.45;4.78;;;12.30;99.90;;;;;;5031208;28;20045;-46
2021/01/10 04:52:38;;;;;;;7.47;4.55;;;12.30;99.90;;;;;;5031557;28;20099;-46
2021/01/10 04:55:06;;;;;;;6.43;4.65;;;12.30;99.90;;;;;;5031155;28;20045;-51
2021/01/10 04:57:34;;;;;;;7.22;4.55;;;12.30;99.90;;;;;;5031634;28;20049;-46
2021/01/10 05:00:06;;;;;;;6.35;4.43;;;12.30;99.90;;;;;;5031123;28;20049;-49
2021/01/10 05:02:45;;;;;;;6.57;4.30;;;12.40;99.90;;;;;;5031412;28;20558;-46
2021/01/10 05:05:14;;;;;;;6.50;4.13;;;12.40;99.90;;;;;;5030978;28;20064;-46
2021/01/10 05:07:43;;;;;;;8.68;3.83;;;12.50;99.90;;;;;;5011890;28;20042;-46
2021/01/10 05:10:11;;;;;;;9.90;5.38;;;12.50;99.90;;;;;;5011626;28;20492;-48
2021/01/10 05:12:38;;;;;;;7.20;4.80;;;12.60;99.90;;;;;;5031544;28;20116;-50
2021/01/10 05:15:06;;;;;;;8.57;4.28;;;12.60;99.90;;;;;;5030785;28;20492;-47
2021/01/10 05:17:34;;;;;;;7.10;3.85;;;12.60;99.90;;;;;;5031363;28;20045;-46
2021/01/10 05:20:08;;;;;;;5.57;4.20;;;12.70;99.90;;;;;;5031118;28;20041;-45
2021/01/10 05:22:38;;;;;;;5.68;4.18;;;12.70;99.90;;;;;;5031327;28;20049;-45
2021/01/10 05:25:12;;;;;;;7.10;4.53;;;12.70;99.90;;;;;;5032359;28;20053;-45
2021/01/10 05:27:40;;;;;;;10.57;5.30;;;12.70;99.90;;;;;;5031350;28;20511;-46
2021/01/10 05:30:08;;;;;;;7.95;5.20;;;12.70;99.90;;;;;;5034656;28;20049;-47
2021/01/10 05:32:35;;;;;;;6.78;4.25;;;12.70;99.90;;;;;;5034768;28;20056;-46
2021/01/10 05:35:03;;;;;;;7.20;4.63;;;12.70;99.90;;;;;;5018075;28;20056;-45
2021/01/10 05:37:31;;;;;;;8.60;4.55;;;12.70;99.90;;;;;;5034702;28;20050;-46
2021/01/10 05:39:58;;;;;;;5.97;4.55;;;12.70;99.90;;;;;;5035515;28;20507;-52
2021/01/10 05:42:31;;;;;;;6.78;4.15;;;12.70;99.90;;;;;;5017879;28;20442;-46
2021/01/10 05:44:59;;;;;;;8.27;4.80;;;12.70;99.90;;;;;;5035631;28;20487;-49
2021/01/10 05:47:37;;;;;;;7.13;4.28;;;12.70;99.90;;;;;;5034475;28;20148;-49
2021/01/10 05:50:14;;;;;;;7.85;5.20;;;12.70;99.90;;;;;;5033235;28;20484;-49
2021/01/10 05:52:43;;;;;;;6.72;4.57;;;12.70;99.90;;;;;;5033501;28;20049;-51
2021/01/10 05:55:10;;;;;;;9.05;4.88;;;12.70;99.90;;;;;;5033927;28;20057;-46
2021/01/10 05:57:38;;;;;;;7.78;4.50;;;12.70;99.90;;;;;;5034799;28;20052;-47
2021/01/10 06:00:06;;;;;;;9.32;5.55;;;12.60;99.90;;;;;;5034212;28;20056;-50
2021/01/10 06:02:37;;;;;;;8.23;4.90;;;12.60;99.90;;;;;;5032810;28;20053;-49
2021/01/10 06:05:14;;;;;;;8.10;5.25;;;12.60;99.90;;;;;;5028209;28;20084;-46
2021/01/10 06:07:44;;;;;;;7.40;4.97;;;12.60;99.90;;;;;;5023670;28;20752;-45
2021/01/10 06:10:12;;;;;;;7.07;4.82;;;12.60;99.90;;;;;;5022410;28;20041;-46
2021/01/10 06:12:40;;;;;;;9.82;5.25;;;12.60;99.90;;;;;;5023916;28;21287;-46
2021/01/10 06:15:15;;;;;;;6.50;4.70;;;12.60;99.90;;;;;;5028150;28;20054;-46
2021/01/10 06:17:45;;;;;;;7.32;4.20;;;12.60;99.90;;;;;;5015631;28;20057;-50
2021/01/10 06:20:25;;;;;;;7.60;4.53;;;12.60;99.90;;;;;;5030175;28;20052;-48
2021/01/10 06:22:55;;;;;;;6.40;4.13;;;12.50;99.90;;;;;;5029319;28;20399;-49
2021/01/10 06:25:24;;;;;;;8.60;4.85;;;12.50;99.90;;;;;;5033158;28;20053;-47
2021/01/10 06:28:03;;;;;;;7.45;4.13;;;12.40;99.90;;;;;;5033189;28;20399;-46
2021/01/10 06:30:33;;;;;;;7.35;4.72;;;12.30;99.90;;;;;;5031045;28;20100;-51
2021/01/10 06:33:10;;;;;;;7.78;4.78;;;12.30;99.90;;;;;;5015852;28;20648;-45
2021/01/10 06:35:40;;;;;;;7.70;4.75;;;12.30;99.90;;;;;;5031207;28;20061;-48
2021/01/10 06:38:09;;;;;;;7.30;4.85;;;12.30;99.90;;;;;;5015195;28;20052;-50
2021/01/10 06:40:39;;;;;;;9.07;5.72;;;12.10;99.90;;;;;;5031655;28;20535;-46
2021/01/10 06:43:10;;;;;;;9.75;7.20;;;12.00;99.90;;;;;;5032141;28;20061;-45
2021/01/10 06:45:40;;;;;;;9.27;6.45;;;11.90;99.90;;;;;;5033089;28;20049;-45
2021/01/10 06:48:09;;;;;;;10.07;6.13;;;11.90;99.90;;;;;;5033294;28;20568;-52
2021/01/10 06:50:36;;;;;;;6.75;4.88;;;11.90;99.90;;;;;;5048993;28;20041;-46
2021/01/10 06:53:08;;;;;;;7.70;5.13;;;11.90;99.90;;;;;;5033673;28;20052;-45
2021/01/10 06:55:38;;;;;;;6.93;5.05;;;12.00;99.90;;;;;;5033305;28;20059;-46
2021/01/10 06:58:09;;;;;;;9.05;4.90;;;12.10;99.90;;;;;;5034521;28;20049;-48
2021/01/10 07:00:52;;;;;;;20.55;11.60;;;12.20;99.90;;;;;;5016435;28;20046;-45
2021/01/10 07:03:21;;;;;;;13.65;9.75;;;12.20;99.90;;;;;;5032960;28;20064;-51
2021/01/10 07:06:14;;;;;;;10.82;7.18;;;12.30;99.90;;;;;;5031014;28;20061;-51
2021/01/10 07:08:52;;;;;;;9.15;5.88;;;12.30;99.90;;;;;;5033868;28;20053;-46
2021/01/10 07:11:25;;;;;;;13.98;8.93;;;12.40;99.90;;;;;;5032984;28;20111;-46
2021/01/10 07:14:12;;;;;;;13.52;8.75;;;12.40;99.90;;;;;;5032738;28;20132;-47
2021/01/10 07:16:42;;;;;;;9.23;6.30;;;12.40;99.90;;;;;;5024403;28;20050;-46
2021/01/10 07:19:11;;;;;;;11.07;6.45;;;12.40;99.90;;;;;;5033675;28;20046;-45
2021/01/10 07:21:46;;;;;;;9.15;5.88;;;12.40;99.90;;;;;;5024916;28;20383;-49
2021/01/10 07:24:16;;;;;;;7.88;5.88;;;12.50;99.90;;;;;;5032240;28;20115;-50
2021/01/10 07:27:00;;;;;;;9.23;5.90;;;12.50;99.90;;;;;;5032821;28;20061;-47
2021/01/10 07:29:27;;;;;;;5.45;4.25;;;12.60;99.90;;;;;;5032250;28;20399;-48
2021/01/10 07:32:07;;;;;;;11.07;6.68;;;13.00;99.90;;;;;;5032718;28;20069;-50
2021/01/10 07:34:48;;;;;;;11.57;8.25;;;13.90;99.90;;;;;;5033171;28;20049;-47
2021/01/10 07:37:15;;;;;;;11.52;7.00;;;15.00;99.90;;;;;;5016589;28;20046;-51
2021/01/10 07:40:09;;;;;;;9.52;4.30;;;16.90;99.90;;;;;;5033712;28;20084;-47
2021/01/10 07:42:39;;;;;;;8.57;4.20;;;18.60;99.90;;;;;;5031895;28;20057;-50
2021/01/10 07:45:17;;;;;;;10.35;4.35;;;19.40;99.90;;;;;;5009674;28;20045;-50
2021/01/10 07:47:46;;;;;;;7.28;3.78;;;20.30;99.90;;;;;;4994469;28;20043;-44
2021/01/10 07:50:18;;;;;;;9.23;3.33;;;21.00;99.90;;;;;;5004740;28;20051;-46
2021/01/10 07:52:49;;;;;;;6.00;3.65;;;21.30;99.90;;;;;;4992316;28;20043;-47
2021/01/10 07:55:19;;;;;;;8.07;4.50;;;21.10;99.90;;;;;;5005421;28;20050;-48
2021/01/10 07:57:54;;;;;;;6.28;3.95;;;20.50;99.90;;;;;;4980199;28;20050;-46
2021/01/10 08:00:31;;;;;;;5.97;3.53;;;19.60;99.90;;;;;;5002411;28;20049;-46
2021/01/10 08:02:58;;;;;;;;;;;18.60;99.90;;;;;;5033867;28;20141;-44
2021/01/10 08:05:33;;;;;;;6.88;4.15;;;17.70;99.90;;;;;;5008033;28;20371;-45
2021/01/10 08:08:13;;;;;;;6.82;4.03;;;17.10;99.90;;;;;;4979983;28;20072;-47
2021/01/10 08:10:53;;;;;;;5.47;3.83;;;16.60;99.90;;;;;;5023290;28;20053;-45
2021/01/10 08:13:38;;;;;;;6.20;4.43;;;16.10;99.90;;;;;;5014170;28;20492;-46
2021/01/10 08:16:13;;;;;;;5.85;3.58;;;15.70;99.90;;;;;;5018185;28;20492;-45
2021/01/10 08:18:45;;;;;;;7.13;4.07;;;15.40;99.90;;;;;;4997374;28;20134;-45
2021/01/10 08:21:17;;;;;;;7.90;4.60;;;15.20;99.90;;;;;;5007100;28;20140;-49
2021/01/10 08:23:53;;;;;;;10.32;4.88;;;15.00;99.90;;;;;;4980430;28;20037;-51
2021/01/10 08:26:21;;;;;;;;;;;14.90;99.90;;;;;;5005182;28;20053;-51
2021/01/10 08:28:57;;;;;;;12.68;6.78;;;14.80;99.90;;;;;;4998010;28;19932;-49
2021/01/10 08:31:25;;;;;;;;;;;14.70;99.90;;;;;;5024829;28;20061;-49
2021/01/10 08:34:02;;;;;;;13.63;7.88;;;14.70;99.90;;;;;;4995222;28;19920;-53
2021/01/10 08:36:31;;;;;;;11.90;6.97;;;14.60;99.90;;;;;;5004328;28;20396;-51
2021/01/10 08:39:05;;;;;;;14.77;6.82;;;14.70;99.90;;;;;;4999598;28;20389;-52
2021/01/10 08:41:32;;;;;;;10.55;6.13;;;14.60;99.90;;;;;;4990343;28;20046;-52
2021/01/10 08:44:03;;;;;;;10.07;5.45;;;14.60;99.90;;;;;;5028753;28;20137;-48
2021/01/10 08:46:33;;;;;;;8.02;5.00;;;14.60;99.90;;;;;;5031799;28;20134;-50
2021/01/10 08:49:01;;;;;;;11.00;5.93;;;14.40;99.90;;;;;;5031265;28;20046;-50
2021/01/10 08:51:34;;;;;;;11.77;5.57;;;14.40;99.90;;;;;;5015507;28;20062;-48
2021/01/10 08:54:07;;;;;;;17.92;6.50;;;14.30;99.90;;;;;;5031310;28;20124;-52
2021/01/10 08:56:36;;;;;;;26.80;7.85;;;14.30;99.90;;;;;;5015242;28;20073;-48
2021/01/10 08:59:04;;;;;;;14.25;6.18;;;14.30;99.90;;;;;;5031421;28;20049;-50
2021/01/10 09:01:32;;;;;;;8.80;6.43;;;14.30;99.90;;;;;;5031592;28;20071;-45
2021/01/10 09:03:59;;;;;;;22.20;8.13;;;14.40;99.90;;;;;;5033119;28;20053;-49
2021/01/10 09:06:36;;;;;;;24.05;10.13;;;14.40;99.90;;;;;;5035346;28;20045;-48
2021/01/10 09:09:18;;;;;;;;;;;14.40;99.90;;;;;;5019171;28;20132;-46
2021/01/10 09:11:53;;;;;;;18.30;8.70;;;14.40;99.90;;;;;;5024695;28;20012;-48
2021/01/10 09:14:23;;;;;;;11.50;7.40;;;14.50;99.90;;;;;;5008562;28;20054;-46
2021/01/10 09:16:52;;;;;;;15.30;9.55;;;14.60;99.90;;;;;;5036567;28;20061;-46
2021/01/10 09:19:23;;;;;;;20.77;8.13;;;14.60;99.90;;;;;;5034731;28;20372;-45
2021/01/10 09:21:50;;;;;;;12.68;7.25;;;14.60;99.90;;;;;;5035321;28;20053;-46
2021/01/10 09:24:18;;;;;;;10.85;6.70;;;14.60;99.90;;;;;;5035700;28;20045;-47
2021/01/10 09:26:45;;;;;;;10.32;6.20;;;14.60;99.90;;;;;;5035477;28;20053;-47
2021/01/10 09:29:19;;;;;;;12.32;6.65;;;14.60;99.90;;;;;;5035785;28;20041;-44
2021/01/10 09:31:49;;;;;;;8.20;4.85;;;14.60;99.90;;;;;;5036371;28;20045;-47
2021/01/10 09:34:24;;;;;;;10.85;5.45;;;14.60;99.90;;;;;;5035534;28;20068;-51
2021/01/10 09:37:08;;;;;;;8.93;5.20;;;14.50;99.90;;;;;;5018426;28;20041;-45
2021/01/10 09:39:43;;;;;;;13.38;5.75;;;14.60;99.90;;;;;;5035742;28;20080;-50
2021/01/10 09:42:12;;;;;;;;;;;14.60;99.90;;;;;;5018994;28;20095;-48
2021/01/10 09:44:40;;;;;;;8.13;4.68;;;14.60;99.90;;;;;;5035652;28;19921;-48
2021/01/10 09:47:09;;;;;;;11.93;5.10;;;14.60;99.90;;;;;;5034639;28;20061;-52
2021/01/10 09:49:36;;;;;;;16.23;6.00;;;14.70;99.90;;;;;;5034202;28;20403;-49
2021/01/10 09:52:11;;;;;;;15.57;4.80;;;14.60;99.90;;;;;;5034791;28;20054;-48
2021/01/10 09:54:39;;;;;;;14.43;5.70;;;14.70;99.90;;;;;;5033993;28;20057;-51
2021/01/10 09:57:09;;;;;;;13.38;8.00;;;14.70;99.90;;;;;;5034585;28;20046;-50
2021/01/10 09:59:47;;;;;;;18.00;6.32;;;14.80;99.90;;;;;;5017787;28;20052;-49
2021/01/10 10:02:37;;;;;;;11.18;5.85;;;14.90;99.90;;;;;;5034116;28;20045;-46
2021/01/10 10:05:19;;;;;;;7.00;4.63;;;14.90;99.90;;;;;;5035239;28;20491;-46
2021/01/10 10:07:48;;;;;;;8.13;4.65;;;15.00;99.90;;;;;;5030971;28;20046;-47
2021/01/10 10:10:30;;;;;;;7.13;4.30;;;15.00;99.90;;;;;;5031965;28;20064;-54
2021/01/10 10:12:59;;;;;;;19.70;11.90;;;15.00;99.90;;;;;;5035633;28;20049;-52
2021/01/10 10:15:42;;;;;;;11.50;7.13;;;15.00;99.90;;;;;;5032597;28;20060;-47
2021/01/10 10:18:18;;;;;;;12.40;6.32;;;15.00;99.90;;;;;;5033699;28;20045;-53
2021/01/10 10:20:46;;;;;;;10.88;7.57;;;14.90;99.90;;;;;;5014612;28;20054;-52
2021/01/10 10:23:15;;;;;;;9.50;5.32;;;14.90;99.90;;;;;;5014883;28;20092;-46
2021/01/10 10:25:44;;;;;;;9.00;4.75;;;14.90;99.90;;;;;;5016872;28;20049;-47
2021/01/10 10:28:11;;;;;;;8.00;4.85;;;14.90;99.90;;;;;;5033555;28;20045;-50
2021/01/10 10:30:42;;;;;;;8.80;5.00;;;14.90;99.90;;;;;;5034658;28;20056;-46
2021/01/10 10:33:10;;;;;;;10.98;4.40;;;15.00;99.90;;;;;;5017257;28;20479;-49
2021/01/10 10:35:38;;;;;;;9.68;4.53;;;15.00;99.90;;;;;;5033425;28;20049;-50
2021/01/10 10:38:06;;;;;;;5.78;3.75;;;15.00;99.90;;;;;;5017485;28;20049;-45
2021/01/10 10:40:33;;;;;;;8.50;4.32;;;15.00;99.90;;;;;;5017141;28;20103;-48
2021/01/10 10:43:02;;;;;;;6.65;4.10;;;15.00;99.90;;;;;;5033673;28;20480;-45
2021/01/10 10:45:30;;;;;;;14.07;5.57;;;15.10;99.90;;;;;;5016797;28;20050;-44
2021/01/10 10:47:57;;;;;;;8.25;3.78;;;15.10;99.90;;;;;;5001172;28;20046;-44
2021/01/10 10:50:25;;;;;;;7.60;4.30;;;15.10;99.90;;;;;;5033936;28;20049;-45
2021/01/10 10:52:52;;;;;;;13.95;6.82;;;15.20;99.90;;;;;;5033717;28;20135;-46
2021/01/10 10:55:22;;;;;;;14.23;6.40;;;15.20;99.90;;;;;;5016525;28;20077;-45
2021/01/10 10:57:49;;;;;;;11.95;6.75;;;15.20;99.90;;;;;;5017387;28;20058;-46
2021/01/10 11:00:18;;;;;;;10.45;5.47;;;15.30;99.90;;;;;;5034199;28;20076;-44
2021/01/10 11:02:47;;;;;;;12.90;5.35;;;15.30;99.90;;;;;;5016910;28;20053;-44
2021/01/10 11:05:14;;;;;;;8.70;4.50;;;15.30;99.90;;;;;;5032754;28;20049;-45
2021/01/10 11:07:42;;;;;;;6.22;3.88;;;15.40;99.90;;;;;;5013600;28;20046;-49
2021/01/10 11:10:09;;;;;;;10.35;4.57;;;15.50;99.90;;;;;;5030942;28;20077;-50
2021/01/10 11:12:37;;;;;;;9.70;4.00;;;15.70;99.90;;;;;;5032948;28;20403;-50
2021/01/10 11:15:06;;;;;;;9.30;4.00;;;15.70;99.90;;;;;;5032794;28;20060;-51
2021/01/10 11:17:33;;;;;;;12.38;5.90;;;15.80;99.90;;;;;;5034185;28;20053;-47
2021/01/10 11:20:04;;;;;;;11.73;5.53;;;15.80;99.90;;;;;;5016044;28;20096;-46
2021/01/10 11:22:36;;;;;;;10.77;6.75;;;15.80;99.90;;;;;;5034160;28;20099;-45
2021/01/10 11:25:08;;;;;;;11.45;6.45;;;15.80;99.90;;;;;;5032415;28;20412;-48
2021/01/10 11:27:35;;;;;;;10.07;4.80;;;15.80;99.90;;;;;;5032889;28;20057;-47
2021/01/10 11:30:04;;;;;;;8.85;3.20;;;15.70;99.90;;;;;;5033694;28;20096;-47
2021/01/10 11:32:32;;;;;;;6.55;3.70;;;15.70;99.90;;;;;;5033812;28;20053;-47
2021/01/10 11:35:00;;;;;;;7.20;4.75;;;15.80;99.90;;;;;;5032306;28;20511;-50
2021/01/10 11:37:28;;;;;;;9.18;3.90;;;15.80;99.90;;;;;;5032699;28;20046;-48
2021/01/10 11:39:55;;;;;;;11.95;4.40;;;15.70;99.90;;;;;;5031933;28;20121;-46
2021/01/10 11:42:32;;;;;;;9.38;3.95;;;15.80;99.90;;;;;;5017241;28;20065;-46
2021/01/10 11:45:00;;;;;;;14.43;4.38;;;15.90;99.90;;;;;;5033190;28;20049;-45
2021/01/10 11:47:27;;;;;;;17.63;5.30;;;15.90;99.90;;;;;;5032670;28;20049;-46
2021/01/10 11:49:55;;;;;;;11.85;5.05;;;15.90;99.90;;;;;;5015513;28;20079;-45
2021/01/10 11:52:22;;;;;;;8.52;4.60;;;16.00;99.90;;;;;;5032035;28;20049;-45
2021/01/10 11:54:50;;;;;;;14.93;7.95;;;16.00;99.90;;;;;;5031862;28;20049;-44
2021/01/10 11:57:17;;;;;;;10.88;5.45;;;16.00;99.90;;;;;;5032527;28;20042;-48
2021/01/10 11:59:47;;;;;;;16.77;6.05;;;16.00;99.90;;;;;;5033073;28;20132;-44
2021/01/10 12:02:14;;;;;;;10.35;6.15;;;16.00;99.90;;;;;;4999749;28;20093;-44
2021/01/10 12:04:41;;;;;;;7.57;5.20;;;16.00;99.90;;;;;;5031708;28;20134;-45
2021/01/10 12:07:10;;;;;;;9.57;4.60;;;15.90;99.90;;;;;;5033325;28;20061;-45
2021/01/10 12:09:37;;;;;;;12.93;6.65;;;16.00;99.90;;;;;;5031688;28;20041;-45
2021/01/10 12:12:10;;;;;;;13.07;5.25;;;15.90;99.90;;;;;;5033577;28;20103;-48
2021/01/10 12:14:37;;;;;;;16.25;6.75;;;15.90;99.90;;;;;;5032681;28;20060;-46
2021/01/10 12:17:08;;;;;;;12.23;5.53;;;15.90;99.90;;;;;;5033260;28;20045;-45
2021/01/10 12:19:35;;;;;;;12.32;5.65;;;15.80;99.90;;;;;;5031556;28;20045;-45
2021/01/10 12:22:05;;;;;;;9.02;5.03;;;15.90;99.90;;;;;;5033383;28;20057;-45
2021/01/10 12:24:32;;;;;;;10.20;4.80;;;15.90;99.90;;;;;;5014870;28;20099;-47
2021/01/10 12:27:00;;;;;;;10.45;6.07;;;15.90;99.90;;;;;;5032029;28;20073;-45
2021/01/10 12:29:27;;;;;;;9.10;4.78;;;15.90;99.90;;;;;;5031507;28;20056;-45
2021/01/10 12:31:58;;;;;;;17.30;5.38;;;15.90;99.90;;;;;;5032674;28;20128;-50
2021/01/10 12:34:26;;;;;;;11.35;4.40;;;15.90;99.90;;;;;;5031220;28;20134;-47
2021/01/10 12:36:53;;;;;;;6.57;3.55;;;15.90;99.90;;;;;;5014605;28;20042;-45
2021/01/10 12:39:20;;;;;;;13.20;5.63;;;15.90;99.90;;;;;;5016883;28;20053;-48
2021/01/10 12:41:48;;;;;;;10.70;4.72;;;15.90;99.90;;;;;;5036211;28;20049;-48
2021/01/10 12:44:15;;;;;;;11.75;4.68;;;15.90;99.90;;;;;;5029882;28;20062;-49
2021/01/10 12:46:43;;;;;;;14.63;5.45;;;16.00;99.90;;;;;;5006946;28;20104;-47
2021/01/10 12:53:29;;;;;;;13.95;6.07;;;16.10;99.90;;;;;;5000841;28;20044;-48
2021/01/10 12:55:57;;;;;;;14.85;7.20;;;16.10;99.90;;;;;;5026109;28;20128;-49
2021/01/10 12:58:25;;;;;;;11.98;5.57;;;16.10;99.90;;;;;;5016574;28;20498;-47
2021/01/10 13:00:52;;;;;;;14.98;6.35;;;16.10;99.90;;;;;;5026760;28;20045;-47
2021/01/10 13:03:21;;;;;;;14.93;6.20;;;16.20;99.90;;;;;;4983133;28;20499;-48
2021/01/10 13:05:50;;;;;;;14.23;6.28;;;16.20;99.90;;;;;;5007270;28;20045;-47
2021/01/10 13:08:18;;;;;;;17.58;6.22;;;16.20;99.90;;;;;;5017173;28;20124;-47
2021/01/10 13:10:45;;;;;;;11.80;5.35;;;16.20;99.90;;;;;;4992814;28;20184;-46
2021/01/10 13:13:14;;;;;;;13.63;5.50;;;16.20;99.90;;;;;;5015984;28;20089;-51